createdAt,value
2019-03-23T00:01:17.149Z,7.53
2019-03-23T00:03:45.920Z,7.47
2019-03-23T00:06:14.242Z,7.54
2019-03-23T00:08:42.547Z,7.65
2019-03-23T00:11:10.869Z,7.74
2019-03-23T00:13:39.611Z,7.78
2019-03-23T00:16:07.933Z,8.00
2019-03-23T00:18:36.260Z,8.04
2019-03-23T00:21:04.894Z,7.56
2019-03-23T00:23:33.229Z,7.48
2019-03-23T00:26:01.531Z,7.42
2019-03-23T00:28:29.915Z,7.30
2019-03-23T00:30:58.584Z,7.25
2019-03-23T00:33:27.170Z,7.09
2019-03-23T00:35:55.493Z,7.09
2019-03-23T00:38:23.868Z,7.03
2019-03-23T00:40:52.202Z,7.33
2019-03-23T00:43:20.519Z,7.69
2019-03-23T00:45:48.846Z,7.39
2019-03-23T00:48:17.230Z,7.30
2019-03-23T00:50:45.529Z,7.38
2019-03-23T00:53:13.858Z,7.41
2019-03-23T00:55:42.160Z,7.09
2019-03-23T00:58:10.570Z,6.81
2019-03-23T01:00:38.940Z,6.79
2019-03-23T01:03:07.651Z,6.86
2019-03-23T01:05:35.957Z,7.14
2019-03-23T01:08:04.287Z,6.67
2019-03-23T01:10:32.600Z,6.81
2019-03-23T01:13:00.963Z,6.56
2019-03-23T01:15:29.597Z,6.63
2019-03-23T01:17:57.903Z,6.52
2019-03-23T01:20:26.223Z,6.35
2019-03-23T01:22:54.542Z,6.42
2019-03-23T01:25:22.867Z,6.53
2019-03-23T01:27:51.174Z,6.43
2019-03-23T01:30:20.163Z,6.34
2019-03-23T01:32:48.469Z,6.21
2019-03-23T01:35:16.776Z,6.20
2019-03-23T01:37:45.171Z,6.30
2019-03-23T01:40:13.555Z,6.34
2019-03-23T01:42:41.902Z,6.19
2019-03-23T01:45:12.225Z,6.19
2019-03-23T01:47:40.650Z,6.15
2019-03-23T01:50:10.470Z,6.11
2019-03-23T01:52:38.846Z,6.09
2019-03-23T01:55:08.720Z,6.06
2019-03-23T01:57:37.171Z,6.04
2019-03-23T02:00:10.487Z,5.99
2019-03-23T02:02:38.791Z,5.97
2019-03-23T02:05:08.889Z,5.92
2019-03-23T02:07:37.202Z,5.87
2019-03-23T02:10:07.986Z,5.86
2019-03-23T02:12:36.362Z,5.83
2019-03-23T02:15:06.870Z,5.79
2019-03-23T02:17:35.194Z,5.73
2019-03-23T02:20:05.404Z,5.62
2019-03-23T02:22:33.796Z,5.62
2019-03-23T02:25:02.475Z,5.62
2019-03-23T02:27:30.798Z,5.37
2019-03-23T02:29:59.098Z,5.31
2019-03-23T02:32:27.731Z,5.22
2019-03-23T02:34:56.134Z,5.22
2019-03-23T02:37:27.961Z,5.14
2019-03-23T02:39:54.495Z,5.19
2019-03-23T02:42:22.830Z,5.19
2019-03-23T02:44:51.478Z,5.16
2019-03-23T02:47:19.819Z,4.98
2019-03-23T02:49:48.129Z,4.96
2019-03-23T02:52:16.538Z,5.09
2019-03-23T02:54:44.874Z,5.09
2019-03-23T02:57:13.491Z,5.00
2019-03-23T02:59:42.040Z,5.00
2019-03-23T03:02:10.369Z,4.95
2019-03-23T03:04:38.707Z,4.90
2019-03-23T03:07:07.114Z,4.77
2019-03-23T03:09:35.419Z,4.75
2019-03-23T03:12:03.904Z,4.82
2019-03-23T03:14:32.204Z,4.68
2019-03-23T03:17:00.539Z,4.72
2019-03-23T03:19:28.840Z,4.67
2019-03-23T03:21:57.257Z,4.84
2019-03-23T03:24:25.803Z,4.89
2019-03-23T03:26:54.383Z,4.91
2019-03-23T03:29:22.857Z,4.93
2019-03-23T03:31:51.184Z,4.77
2019-03-23T03:34:19.517Z,4.80
2019-03-23T03:36:48.084Z,4.83
2019-03-23T03:39:16.380Z,4.70
2019-03-23T03:41:44.910Z,4.57
2019-03-23T03:44:13.210Z,4.71
2019-03-23T03:46:41.542Z,4.73
2019-03-23T03:49:12.557Z,4.80
2019-03-23T03:51:39.905Z,4.72
2019-03-23T03:54:08.220Z,4.74
2019-03-23T03:56:36.549Z,4.70
2019-03-23T03:59:04.853Z,4.58
2019-03-23T04:01:33.190Z,4.66
2019-03-23T04:04:01.494Z,4.73
2019-03-23T04:06:29.802Z,4.71
2019-03-23T04:08:58.129Z,4.62
2019-03-23T04:11:26.436Z,4.55
2019-03-23T04:13:54.767Z,4.61
2019-03-23T04:16:23.079Z,4.53
2019-03-23T04:18:52.307Z,4.40
2019-03-23T04:21:20.608Z,4.39
2019-03-23T04:23:48.934Z,4.42
2019-03-23T04:26:17.247Z,4.35
2019-03-23T04:28:45.688Z,4.30
2019-03-23T04:31:13.997Z,4.21
2019-03-23T04:33:42.633Z,4.24
2019-03-23T04:36:11.016Z,4.16
2019-03-23T04:38:39.362Z,3.94
2019-03-23T04:41:07.764Z,3.89
2019-03-23T04:43:36.061Z,4.03
2019-03-23T04:46:04.453Z,3.87
2019-03-23T04:48:32.761Z,3.97
2019-03-23T04:51:01.072Z,3.97
2019-03-23T04:53:29.396Z,4.00
2019-03-23T04:55:57.777Z,3.95
2019-03-23T04:58:26.106Z,3.91
2019-03-23T05:00:54.497Z,3.89
2019-03-23T05:03:22.824Z,3.87
2019-03-23T05:05:51.399Z,3.93
2019-03-23T05:08:19.709Z,3.94
2019-03-23T05:10:48.038Z,3.91
2019-03-23T05:13:16.637Z,3.81
2019-03-23T05:15:44.962Z,3.70
2019-03-23T05:18:13.270Z,3.90
2019-03-23T05:20:41.600Z,4.08
2019-03-23T05:23:10.946Z,4.03
2019-03-23T05:25:39.269Z,4.03
2019-03-23T05:28:07.976Z,4.05
2019-03-23T05:30:36.283Z,4.06
2019-03-23T05:33:04.610Z,4.17
2019-03-23T05:35:32.917Z,4.08
2019-03-23T05:38:01.635Z,5.08
2019-03-23T05:40:29.943Z,5.15
2019-03-23T05:42:58.341Z,5.22
2019-03-23T05:45:27.029Z,4.99
2019-03-23T05:47:55.353Z,4.61
2019-03-23T05:50:23.668Z,4.25
2019-03-23T05:52:52.275Z,4.28
2019-03-23T05:55:20.608Z,4.33
2019-03-23T05:57:48.912Z,4.31
2019-03-23T06:00:18.580Z,4.40
2019-03-23T06:02:46.958Z,4.71
2019-03-23T06:05:15.285Z,4.53
2019-03-23T06:07:43.617Z,4.52
2019-03-23T06:10:12.258Z,4.62
2019-03-23T06:12:40.574Z,5.29
2019-03-23T06:15:09.319Z,5.55
2019-03-23T06:17:38.032Z,5.68
2019-03-23T06:20:08.312Z,5.83
2019-03-23T06:22:36.635Z,5.03
2019-03-23T06:25:07.024Z,5.24
2019-03-23T06:27:35.410Z,5.10
2019-03-23T06:30:04.382Z,5.18
2019-03-23T06:32:32.708Z,5.36
2019-03-23T06:35:01.123Z,5.48
2019-03-23T06:37:29.453Z,5.55
2019-03-23T06:39:57.751Z,5.80
2019-03-23T06:42:26.082Z,5.94
2019-03-23T06:44:54.525Z,5.91
2019-03-23T06:47:22.845Z,5.89
2019-03-23T06:49:51.148Z,6.52
2019-03-23T06:52:19.960Z,6.14
2019-03-23T06:54:48.359Z,6.22
2019-03-23T06:57:16.669Z,6.33
2019-03-23T06:59:44.985Z,6.49
2019-03-23T07:02:13.618Z,6.62
2019-03-23T07:04:42.086Z,6.86
2019-03-23T07:07:10.939Z,7.01
2019-03-23T07:09:39.261Z,7.13
2019-03-23T07:12:07.568Z,7.23
2019-03-23T07:14:35.885Z,7.24
2019-03-23T07:17:04.325Z,7.42
2019-03-23T07:19:32.808Z,7.44
2019-03-23T07:22:01.121Z,7.55
2019-03-23T07:24:29.450Z,7.69
2019-03-23T07:26:57.779Z,7.72
2019-03-23T07:29:26.091Z,7.91
2019-03-23T07:32:05.245Z,8.04
2019-03-23T07:34:24.447Z,8.20
2019-03-23T07:36:52.773Z,8.26
2019-03-23T07:39:27.309Z,8.34
2019-03-23T07:41:51.111Z,8.53
2019-03-23T07:44:19.527Z,8.56
2019-03-23T07:46:47.834Z,8.72
2019-03-23T07:49:16.453Z,8.89
2019-03-23T07:51:44.772Z,8.97
2019-03-23T07:54:14.350Z,9.15
2019-03-23T07:56:42.652Z,9.09
2019-03-23T07:59:10.956Z,9.15
2019-03-23T08:01:39.290Z,9.28
2019-03-23T08:04:07.658Z,9.48
2019-03-23T08:06:35.984Z,9.48
2019-03-23T08:09:05.424Z,9.58
2019-03-23T08:11:33.743Z,9.64
2019-03-23T08:14:02.040Z,9.60
2019-03-23T08:16:30.364Z,9.70
2019-03-23T08:18:58.669Z,9.84
2019-03-23T08:21:26.996Z,9.88
2019-03-23T08:23:55.643Z,10.14
2019-03-23T08:26:24.016Z,10.23
2019-03-23T08:28:52.629Z,10.33
2019-03-23T08:31:20.964Z,10.44
2019-03-23T08:33:49.394Z,10.67
2019-03-23T08:36:17.854Z,10.61
2019-03-23T08:38:46.203Z,10.74
2019-03-23T08:41:14.709Z,10.97
2019-03-23T08:43:43.021Z,10.83
2019-03-23T08:46:11.351Z,11.02
2019-03-23T08:48:40.076Z,11.15
2019-03-23T08:51:08.712Z,11.26
2019-03-23T08:53:37.026Z,11.36
2019-03-23T08:56:05.726Z,11.58
2019-03-23T08:58:33.242Z,11.52
2019-03-23T09:01:01.709Z,11.72
2019-03-23T09:03:30.015Z,11.85
2019-03-23T09:05:58.345Z,12.14
2019-03-23T09:08:26.746Z,12.31
2019-03-23T09:10:55.041Z,11.87
2019-03-23T09:13:23.445Z,12.56
2019-03-23T09:15:51.868Z,12.66
2019-03-23T09:18:20.210Z,12.71
2019-03-23T09:20:48.519Z,12.60
2019-03-23T09:23:17.217Z,13.04
2019-03-23T09:25:45.878Z,13.31
2019-03-23T09:28:14.440Z,13.07
2019-03-23T09:30:42.748Z,13.01
2019-03-23T09:33:11.059Z,13.37
2019-03-23T09:35:39.732Z,13.61
2019-03-23T09:38:08.420Z,13.75
2019-03-23T09:40:36.750Z,13.30
2019-03-23T09:43:05.202Z,13.99
2019-03-23T09:45:33.580Z,13.43
2019-03-23T09:48:01.837Z,13.71
2019-03-23T09:50:30.434Z,13.75
2019-03-23T09:52:58.834Z,14.02
2019-03-23T09:55:28.652Z,14.47
2019-03-23T09:57:57.250Z,14.02
2019-03-23T10:00:25.553Z,14.23
2019-03-23T10:02:53.987Z,14.23
2019-03-23T10:05:22.304Z,14.69
2019-03-23T10:07:50.944Z,14.71
2019-03-23T10:10:22.018Z,14.67
2019-03-23T10:12:49.277Z,14.93
2019-03-23T10:15:17.676Z,14.54
2019-03-23T10:17:45.993Z,15.49
2019-03-23T10:20:14.391Z,15.34
2019-03-23T10:22:42.880Z,15.36
2019-03-23T10:25:11.367Z,15.35
2019-03-23T10:27:39.662Z,15.55
2019-03-23T10:30:10.007Z,15.75
2019-03-23T10:32:38.394Z,15.32
2019-03-23T10:35:08.606Z,15.20
2019-03-23T10:37:36.934Z,15.67
2019-03-23T10:40:07.645Z,15.79
2019-03-23T10:42:36.165Z,16.25
2019-03-23T10:45:09.289Z,16.17
2019-03-23T10:47:38.008Z,16.30
2019-03-23T10:50:07.039Z,16.56
2019-03-23T10:52:35.363Z,16.63
2019-03-23T10:55:08.231Z,16.41
2019-03-23T10:57:37.508Z,16.63
2019-03-23T11:00:13.274Z,16.85
2019-03-23T11:02:41.656Z,16.85
2019-03-23T11:05:10.616Z,17.13
2019-03-23T11:07:39.600Z,17.35
2019-03-23T11:10:13.206Z,17.13
2019-03-23T11:12:41.609Z,17.49
2019-03-23T11:15:10.798Z,17.58
2019-03-23T11:17:39.928Z,17.28
2019-03-23T11:20:12.931Z,17.29
2019-03-23T11:22:41.258Z,18.09
2019-03-23T11:25:10.013Z,17.98
2019-03-23T11:27:38.665Z,17.86
2019-03-23T11:30:09.819Z,17.93
2019-03-23T11:32:38.150Z,18.20
2019-03-23T11:35:08.090Z,18.84
2019-03-23T11:37:37.210Z,17.96
2019-03-23T11:40:08.327Z,19.69
2019-03-23T11:42:36.628Z,20.88
2019-03-23T11:45:06.876Z,18.83
2019-03-23T11:47:35.188Z,21.29
2019-03-23T11:50:04.246Z,20.93
2019-03-23T11:52:32.545Z,20.68
2019-03-23T11:55:00.872Z,21.79
2019-03-23T11:57:29.169Z,21.43
2019-03-23T11:59:57.692Z,21.33
2019-03-23T12:02:26.385Z,20.01
2019-03-23T12:04:55.264Z,21.74
2019-03-23T12:07:24.169Z,22.50
2019-03-23T12:09:52.850Z,22.13
2019-03-23T12:12:21.248Z,22.31
2019-03-23T12:14:49.630Z,22.98
2019-03-23T12:17:18.360Z,22.01
2019-03-23T12:19:47.715Z,23.21
2019-03-23T12:22:16.018Z,22.75
2019-03-23T12:24:44.415Z,22.46
2019-03-23T12:27:12.712Z,22.50
2019-03-23T12:29:41.348Z,22.96
2019-03-23T12:32:09.724Z,23.97
2019-03-23T12:34:38.073Z,23.58
2019-03-23T12:37:06.379Z,23.83
2019-03-23T12:39:34.685Z,23.24
2019-03-23T12:42:03.656Z,22.72
2019-03-23T12:44:32.024Z,22.96
2019-03-23T12:47:00.415Z,23.50
2019-03-23T12:49:28.806Z,23.56
2019-03-23T12:51:57.496Z,24.88
2019-03-23T12:54:25.796Z,23.41
2019-03-23T12:56:54.102Z,24.21
2019-03-23T12:59:22.735Z,24.20
2019-03-23T13:01:51.043Z,24.38
2019-03-23T13:04:19.438Z,24.01
2019-03-23T13:06:47.747Z,23.39
2019-03-23T13:09:16.068Z,24.89
2019-03-23T13:11:44.381Z,24.51
2019-03-23T13:14:12.819Z,25.36
2019-03-23T13:16:41.145Z,24.19
2019-03-23T13:19:09.790Z,24.55
2019-03-23T13:21:38.128Z,24.21
2019-03-23T13:24:06.449Z,24.30
2019-03-23T13:26:34.838Z,24.34
2019-03-23T13:29:03.144Z,23.81
2019-03-23T13:31:31.453Z,24.58
2019-03-23T13:34:00.089Z,25.00
2019-03-23T13:36:28.392Z,24.47
2019-03-23T13:38:56.720Z,24.30
2019-03-23T13:41:25.026Z,23.85
2019-03-23T13:43:53.351Z,24.68
2019-03-23T13:46:21.659Z,24.57
2019-03-23T13:48:49.978Z,23.94
2019-03-23T13:51:18.294Z,24.74
2019-03-23T13:53:46.609Z,25.55
2019-03-23T13:56:15.310Z,25.08
2019-03-23T13:58:43.608Z,25.21
2019-03-23T14:01:12.281Z,24.86
2019-03-23T14:03:40.594Z,25.00
2019-03-23T14:06:09.017Z,24.99
2019-03-23T14:08:37.649Z,25.13
2019-03-23T14:11:06.417Z,25.37
2019-03-23T14:13:34.745Z,25.14
2019-03-23T14:16:03.182Z,24.56
2019-03-23T14:18:31.483Z,24.72
2019-03-23T14:20:59.787Z,24.81
2019-03-23T14:23:28.113Z,25.00
2019-03-23T14:25:56.412Z,25.28
2019-03-23T14:28:25.103Z,25.80
2019-03-23T14:30:53.569Z,24.26
2019-03-23T14:33:21.898Z,26.32
2019-03-23T14:35:50.543Z,26.02
2019-03-23T14:38:19.020Z,24.81
2019-03-23T14:40:47.396Z,23.90
2019-03-23T14:43:15.720Z,25.73
2019-03-23T14:45:44.020Z,25.38
2019-03-23T14:48:12.551Z,26.51
2019-03-23T14:50:42.731Z,25.43
2019-03-23T14:53:11.326Z,25.14
2019-03-23T14:55:39.653Z,24.49
2019-03-23T14:58:07.958Z,26.16
2019-03-23T15:00:36.541Z,24.99
2019-03-23T15:03:05.285Z,25.38
2019-03-23T15:05:33.601Z,26.24
2019-03-23T15:08:01.930Z,26.44
2019-03-23T15:10:30.307Z,27.19
2019-03-23T15:12:58.632Z,25.69
2019-03-23T15:15:27.079Z,26.31
2019-03-23T15:17:55.607Z,26.04
2019-03-23T15:20:23.944Z,26.12
2019-03-23T15:22:52.257Z,25.64
2019-03-23T15:25:20.632Z,26.12
2019-03-23T15:27:48.950Z,26.17
2019-03-23T15:30:17.277Z,25.56
2019-03-23T15:32:45.593Z,25.51
2019-03-23T15:35:14.278Z,26.00
2019-03-23T15:37:42.588Z,26.05
2019-03-23T15:40:11.452Z,25.80
2019-03-23T15:42:39.756Z,25.31
2019-03-23T15:45:10.023Z,25.20
2019-03-23T15:47:38.434Z,24.20
2019-03-23T15:50:07.794Z,23.50
2019-03-23T15:52:36.173Z,24.00
2019-03-23T15:55:05.941Z,24.27
2019-03-23T15:57:34.691Z,24.43
2019-03-23T16:00:04.672Z,24.01
2019-03-23T16:02:32.989Z,23.52
2019-03-23T16:05:01.297Z,24.03
2019-03-23T16:07:29.917Z,23.56
2019-03-23T16:09:58.328Z,22.94
2019-03-23T16:12:34.450Z,22.60
2019-03-23T16:14:56.754Z,22.60
2019-03-23T16:17:25.065Z,22.24
2019-03-23T16:19:53.390Z,22.20
2019-03-23T16:22:21.696Z,22.05
2019-03-23T16:24:50.023Z,22.32
2019-03-23T16:27:18.334Z,21.82
2019-03-23T16:29:46.707Z,21.49
2019-03-23T16:32:15.348Z,21.61
2019-03-23T16:34:43.655Z,21.77
2019-03-23T16:37:12.112Z,21.37
2019-03-23T16:39:40.413Z,21.36
2019-03-23T16:42:08.726Z,21.00
2019-03-23T16:44:37.047Z,21.50
2019-03-23T16:47:05.414Z,21.11
2019-03-23T16:49:33.752Z,20.94
2019-03-23T16:52:02.056Z,20.66
2019-03-23T16:54:30.397Z,19.86
2019-03-23T16:56:58.686Z,20.41
2019-03-23T16:59:26.992Z,19.97
2019-03-23T17:01:55.458Z,19.83
2019-03-23T17:04:23.760Z,19.61
2019-03-23T17:06:52.113Z,19.45
2019-03-23T17:09:20.431Z,18.82
2019-03-23T17:11:48.756Z,18.46
2019-03-23T17:14:17.062Z,18.24
2019-03-23T17:16:45.466Z,17.99
2019-03-23T17:19:13.838Z,17.77
2019-03-23T17:21:42.672Z,17.42
2019-03-23T17:24:11.002Z,17.19
2019-03-23T17:26:39.318Z,16.97
2019-03-23T17:29:07.808Z,16.90
2019-03-23T17:31:36.311Z,16.71
2019-03-23T17:34:04.636Z,16.62
2019-03-23T17:36:32.948Z,16.42
2019-03-23T17:39:01.268Z,16.42
2019-03-23T17:41:29.577Z,16.41
2019-03-23T17:43:57.881Z,16.35
2019-03-23T17:46:27.779Z,16.25
2019-03-23T17:48:56.305Z,16.14
2019-03-23T17:51:25.426Z,16.03
2019-03-23T17:53:58.583Z,15.94
2019-03-23T17:56:23.918Z,15.61
2019-03-23T17:58:52.391Z,15.53
2019-03-23T18:01:20.703Z,15.48
2019-03-23T18:03:49.007Z,15.31
2019-03-23T18:06:17.345Z,15.25
2019-03-23T18:08:45.649Z,14.98
2019-03-23T18:11:13.974Z,14.98
2019-03-23T18:13:42.683Z,14.82
2019-03-23T18:16:11.364Z,14.65
2019-03-23T18:18:39.669Z,14.56
2019-03-23T18:21:07.982Z,14.55
2019-03-23T18:23:36.306Z,14.49
2019-03-23T18:26:05.097Z,14.38
2019-03-23T18:28:33.500Z,14.39
2019-03-23T18:31:03.090Z,14.35
2019-03-23T18:33:31.487Z,14.51
2019-03-23T18:35:59.803Z,14.50
2019-03-23T18:38:28.122Z,14.20
2019-03-23T18:40:56.828Z,13.93
2019-03-23T18:43:27.623Z,13.62
2019-03-23T18:45:55.181Z,13.65
2019-03-23T18:48:23.503Z,13.77
2019-03-23T18:50:51.810Z,13.68
2019-03-23T18:53:20.129Z,13.51
2019-03-23T18:55:48.437Z,13.42
2019-03-23T18:58:16.767Z,13.34
2019-03-23T19:00:45.303Z,13.28
2019-03-23T19:03:13.771Z,13.18
2019-03-23T19:05:42.114Z,13.10
2019-03-23T19:08:11.869Z,13.29
2019-03-23T19:10:40.990Z,13.01
2019-03-23T19:13:09.361Z,12.95
2019-03-23T19:15:37.760Z,13.01
2019-03-23T19:18:07.052Z,12.83
2019-03-23T19:20:35.443Z,12.50
2019-03-23T19:23:04.185Z,12.26
2019-03-23T19:25:32.568Z,12.00
2019-03-23T19:28:00.894Z,11.86
2019-03-23T19:30:29.266Z,11.97
2019-03-23T19:32:57.658Z,12.11
2019-03-23T19:35:26.039Z,12.12
2019-03-23T19:37:54.722Z,11.99
2019-03-23T19:40:23.410Z,11.96
2019-03-23T19:42:51.743Z,11.95
2019-03-23T19:45:20.052Z,11.86
2019-03-23T19:47:48.359Z,11.77
2019-03-23T19:50:16.761Z,11.67
2019-03-23T19:52:45.065Z,11.91
2019-03-23T19:55:13.528Z,11.72
2019-03-23T19:57:41.838Z,11.65
2019-03-23T20:00:12.393Z,11.46
2019-03-23T20:02:41.511Z,11.36
2019-03-23T20:05:10.301Z,11.25
2019-03-23T20:07:38.619Z,11.11
2019-03-23T20:10:08.987Z,10.93
2019-03-23T20:12:37.815Z,11.01
2019-03-23T20:15:07.729Z,11.10
2019-03-23T20:17:36.126Z,11.11
2019-03-23T20:20:07.258Z,11.06
2019-03-23T20:22:35.654Z,10.86
2019-03-23T20:25:05.413Z,10.75
2019-03-23T20:27:33.786Z,10.78
2019-03-23T20:30:02.059Z,10.65
2019-03-23T20:32:30.379Z,10.55
2019-03-23T20:34:59.079Z,10.39
2019-03-23T20:37:27.467Z,10.54
2019-03-23T20:39:55.790Z,10.56
2019-03-23T20:42:24.100Z,10.80
2019-03-23T20:44:52.427Z,10.72
2019-03-23T20:47:21.012Z,10.78
2019-03-23T20:49:49.405Z,10.49
2019-03-23T20:52:18.161Z,10.42
2019-03-23T20:54:47.519Z,10.48
2019-03-23T20:57:23.394Z,10.36
2019-03-23T20:59:45.863Z,10.64
2019-03-23T21:02:14.194Z,10.78
2019-03-23T21:04:42.511Z,10.76
2019-03-23T21:07:10.898Z,10.72
2019-03-23T21:09:39.208Z,10.61
2019-03-23T21:12:07.535Z,10.44
2019-03-23T21:14:35.848Z,10.40
2019-03-23T21:17:04.246Z,10.38
2019-03-23T21:19:32.558Z,10.50
2019-03-23T21:22:00.964Z,10.44
2019-03-23T21:24:29.279Z,10.11
2019-03-23T21:26:57.960Z,9.58
2019-03-23T21:29:26.414Z,9.49
2019-03-23T21:31:54.719Z,9.61
2019-03-23T21:34:23.054Z,9.68
2019-03-23T21:36:51.369Z,9.62
2019-03-23T21:39:19.766Z,9.39
2019-03-23T21:41:48.079Z,9.35
2019-03-23T21:44:16.399Z,9.33
2019-03-23T21:46:44.728Z,9.35
2019-03-23T21:49:13.504Z,9.55
2019-03-23T21:51:41.836Z,9.51
2019-03-23T21:54:10.145Z,9.51
2019-03-23T21:56:38.848Z,9.19
2019-03-23T21:59:07.160Z,9.17
2019-03-23T22:01:35.494Z,9.09
2019-03-23T22:04:03.798Z,8.92
2019-03-23T22:06:32.124Z,8.82
2019-03-23T22:09:00.752Z,8.81
2019-03-23T22:11:29.075Z,8.78
2019-03-23T22:13:57.400Z,8.91
2019-03-23T22:16:25.997Z,9.18
2019-03-23T22:18:54.349Z,9.13
2019-03-23T22:21:22.651Z,9.07
2019-03-23T22:23:51.357Z,9.13
2019-03-23T22:26:19.713Z,9.05
2019-03-23T22:28:48.052Z,8.86
2019-03-23T22:31:16.366Z,8.54
2019-03-23T22:33:44.672Z,8.57
2019-03-23T22:36:12.993Z,8.69
2019-03-23T22:38:41.301Z,8.66
2019-03-23T22:41:09.704Z,8.62
2019-03-23T22:43:39.016Z,8.63
2019-03-23T22:46:07.331Z,8.77
2019-03-23T22:48:35.984Z,8.78
2019-03-23T22:51:04.360Z,8.68
2019-03-23T22:53:32.681Z,8.62
2019-03-23T22:56:00.986Z,8.60
2019-03-23T22:58:29.307Z,8.66
2019-03-23T23:00:57.683Z,8.69
2019-03-23T23:03:25.986Z,8.60
2019-03-23T23:05:54.387Z,8.65
2019-03-23T23:08:22.695Z,8.79
2019-03-23T23:10:51.025Z,8.75
2019-03-23T23:13:19.697Z,8.69
2019-03-23T23:15:48.014Z,8.66
2019-03-23T23:18:16.391Z,8.47
2019-03-23T23:20:44.713Z,8.61
2019-03-23T23:23:13.019Z,8.63
2019-03-23T23:25:41.424Z,8.74
2019-03-23T23:28:09.722Z,8.51
2019-03-23T23:30:38.033Z,8.45
2019-03-23T23:33:06.357Z,8.32
2019-03-23T23:35:34.734Z,8.07
2019-03-23T23:38:03.131Z,7.80
2019-03-23T23:40:31.439Z,7.87
2019-03-23T23:42:59.760Z,7.90
2019-03-23T23:45:28.084Z,7.68
2019-03-23T23:47:56.390Z,7.58
2019-03-23T23:50:24.716Z,7.92
2019-03-23T23:52:53.026Z,7.77
2019-03-23T23:55:21.336Z,7.50
2019-03-23T23:57:49.655Z,7.39
